Ubatuba, Brazil
Current Conditions -  °F | °C
As of 8:00 AM on Thursday 27 Nov 2014 (Local Time) from SBGW Reporting Station
Broken Clouds Broken Clouds  
Wind Chill: 72°   Ceiling: 1200
Heat Index: 72°   Visibility: 5mi
Dew Point: 68°   Wind: 2mph
Humidity: 88%   Direction: NA
Pressure: 29.94"   Gusts: NA
Location:  23.45°S, 45.08°W
Report Text: SBGW 271000Z VRB02KT 8000 3500S SCT006 BKN012 BKN070 22/20 Q1014
Loading
Personal Weather Stations






























Interactive Weather Map New forecast layout! Learn more

10-Day Weather Forecast

Advertisements
Track Severe Weather on mobile